sensor_id;sensor_type;location;lat;lon;timestamp;P1;durP1;ratioP1;P2;durP2;ratioP2
21624;SDS011;10974;51.034;3.744;2023-05-17T03:40:11;6.80;;;3.50;;
21624;SDS011;10974;51.034;3.744;2023-05-17T03:42:37;8.90;;;3.97;;
21624;SDS011;10974;51.034;3.744;2023-05-17T03:45:03;8.90;;;3.23;;
21624;SDS011;10974;51.034;3.744;2023-05-17T03:47:29;7.73;;;3.90;;
21624;SDS011;10974;51.034;3.744;2023-05-17T03:49:57;6.50;;;4.03;;
21624;SDS011;10974;51.034;3.744;2023-05-17T03:52:23;6.73;;;4.00;;
21624;SDS011;10974;51.034;3.744;2023-05-17T03:54:49;7.03;;;3.40;;
21624;SDS011;10974;51.034;3.744;2023-05-17T03:57:15;5.60;;;3.43;;
21624;SDS011;10974;51.034;3.744;2023-05-17T03:59:41;6.70;;;4.13;;
21624;SDS011;10974;51.034;3.744;2023-05-17T04:02:07;5.53;;;3.50;;
21624;SDS011;10974;51.034;3.744;2023-05-17T04:04:33;6.77;;;3.83;;
21624;SDS011;10974;51.034;3.744;2023-05-17T04:06:59;10.33;;;4.10;;
21624;SDS011;10974;51.034;3.744;2023-05-17T04:09:26;8.53;;;3.67;;
21624;SDS011;10974;51.034;3.744;2023-05-17T04:11:52;6.17;;;3.63;;
21624;SDS011;10974;51.034;3.744;2023-05-17T04:14:18;12.63;;;4.40;;
21624;SDS011;10974;51.034;3.744;2023-05-17T04:16:44;8.13;;;3.77;;
21624;SDS011;10974;51.034;3.744;2023-05-17T04:19:10;6.00;;;3.40;;
21624;SDS011;10974;51.034;3.744;2023-05-17T04:21:36;7.93;;;3.40;;
21624;SDS011;10974;51.034;3.744;2023-05-17T04:24:02;9.23;;;4.17;;
21624;SDS011;10974;51.034;3.744;2023-05-17T04:26:29;5.70;;;3.80;;
21624;SDS011;10974;51.034;3.744;2023-05-17T04:28:56;7.50;;;3.93;;
21624;SDS011;10974;51.034;3.744;2023-05-17T04:31:22;7.27;;;3.80;;
21624;SDS011;10974;51.034;3.744;2023-05-17T04:33:48;6.40;;;3.87;;
21624;SDS011;10974;51.034;3.744;2023-05-17T04:36:14;6.87;;;4.00;;
21624;SDS011;10974;51.034;3.744;2023-05-17T04:38:41;10.37;;;4.00;;
21624;SDS011;10974;51.034;3.744;2023-05-17T04:41:07;7.17;;;3.70;;
21624;SDS011;10974;51.034;3.744;2023-05-17T04:43:33;6.03;;;3.63;;
21624;SDS011;10974;51.034;3.744;2023-05-17T04:46:00;7.70;;;3.63;;
21624;SDS011;10974;51.034;3.744;2023-05-17T04:48:26;5.43;;;3.20;;
21624;SDS011;10974;51.034;3.744;2023-05-17T04:50:52;6.50;;;3.20;;
21624;SDS011;10974;51.034;3.744;2023-05-17T04:53:18;7.97;;;3.93;;
21624;SDS011;10974;51.034;3.744;2023-05-17T04:55:44;6.67;;;3.93;;
21624;SDS011;10974;51.034;3.744;2023-05-17T04:58:12;7.53;;;3.73;;
21624;SDS011;10974;51.034;3.744;2023-05-17T05:00:38;3.97;;;3.30;;
21624;SDS011;10974;51.034;3.744;2023-05-17T05:03:04;5.73;;;3.67;;
21624;SDS011;10974;51.034;3.744;2023-05-17T05:05:31;6.93;;;3.57;;
21624;SDS011;10974;51.034;3.744;2023-05-17T05:07:57;7.27;;;3.10;;
21624;SDS011;10974;51.034;3.744;2023-05-17T05:10:23;6.80;;;3.43;;
21624;SDS011;10974;51.034;3.744;2023-05-17T05:12:49;6.23;;;3.30;;
21624;SDS011;10974;51.034;3.744;2023-05-17T05:15:15;7.53;;;3.50;;
21624;SDS011;10974;51.034;3.744;2023-05-17T05:17:41;9.50;;;3.63;;
21624;SDS011;10974;51.034;3.744;2023-05-17T05:20:07;9.20;;;3.60;;
21624;SDS011;10974;51.034;3.744;2023-05-17T05:22:34;9.63;;;3.50;;
21624;SDS011;10974;51.034;3.744;2023-05-17T05:25:00;7.30;;;3.53;;
21624;SDS011;10974;51.034;3.744;2023-05-17T05:27:26;7.10;;;3.80;;
21624;SDS011;10974;51.034;3.744;2023-05-17T05:29:53;6.10;;;3.33;;
21624;SDS011;10974;51.034;3.744;2023-05-17T05:32:19;4.50;;;3.30;;
21624;SDS011;10974;51.034;3.744;2023-05-17T05:34:45;8.17;;;3.40;;
21624;SDS011;10974;51.034;3.744;2023-05-17T05:37:11;8.60;;;3.87;;
21624;SDS011;10974;51.034;3.744;2023-05-17T05:39:37;6.87;;;3.97;;
21624;SDS011;10974;51.034;3.744;2023-05-17T05:42:04;8.63;;;4.00;;
21624;SDS011;10974;51.034;3.744;2023-05-17T05:44:30;7.80;;;4.20;;
21624;SDS011;10974;51.034;3.744;2023-05-17T05:46:56;10.37;;;3.60;;
21624;SDS011;10974;51.034;3.744;2023-05-17T05:49:22;7.00;;;3.33;;
21624;SDS011;10974;51.034;3.744;2023-05-17T05:51:48;7.00;;;3.80;;
21624;SDS011;10974;51.034;3.744;2023-05-17T05:54:14;11.70;;;4.00;;
21624;SDS011;10974;51.034;3.744;2023-05-17T05:56:41;7.90;;;3.80;;
21624;SDS011;10974;51.034;3.744;2023-05-17T05:59:07;8.83;;;3.90;;
21624;SDS011;10974;51.034;3.744;2023-05-17T06:01:33;9.37;;;3.60;;
21624;SDS011;10974;51.034;3.744;2023-05-17T06:03:59;6.70;;;4.00;;
21624;SDS011;10974;51.034;3.744;2023-05-17T06:06:25;9.67;;;3.93;;
21624;SDS011;10974;51.034;3.744;2023-05-17T06:08:51;12.40;;;4.37;;
21624;SDS011;10974;51.034;3.744;2023-05-17T06:11:17;10.77;;;4.47;;
21624;SDS011;10974;51.034;3.744;2023-05-17T06:13:44;8.77;;;3.93;;
21624;SDS011;10974;51.034;3.744;2023-05-17T06:16:10;8.53;;;3.83;;
21624;SDS011;10974;51.034;3.744;2023-05-17T06:18:37;9.60;;;3.87;;
21624;SDS011;10974;51.034;3.744;2023-05-17T06:21:03;6.17;;;3.93;;
21624;SDS011;10974;51.034;3.744;2023-05-17T06:23:29;13.17;;;4.20;;
21624;SDS011;10974;51.034;3.744;2023-05-17T06:25:55;7.60;;;3.80;;
21624;SDS011;10974;51.034;3.744;2023-05-17T06:28:21;9.03;;;4.40;;
21624;SDS011;10974;51.034;3.744;2023-05-17T06:30:47;8.20;;;4.50;;
21624;SDS011;10974;51.034;3.744;2023-05-17T06:33:13;8.83;;;4.27;;
21624;SDS011;10974;51.034;3.744;2023-05-17T06:35:39;11.03;;;4.63;;
21624;SDS011;10974;51.034;3.744;2023-05-17T06:38:05;12.03;;;4.70;;
21624;SDS011;10974;51.034;3.744;2023-05-17T06:40:31;10.00;;;4.50;;
21624;SDS011;10974;51.034;3.744;2023-05-17T06:42:57;7.60;;;4.80;;
21624;SDS011;10974;51.034;3.744;2023-05-17T06:45:26;9.37;;;4.67;;
21624;SDS011;10974;51.034;3.744;2023-05-17T06:47:52;10.30;;;4.10;;
21624;SDS011;10974;51.034;3.744;2023-05-17T06:50:18;11.73;;;4.93;;
21624;SDS011;10974;51.034;3.744;2023-05-17T06:52:44;11.30;;;4.50;;
21624;SDS011;10974;51.034;3.744;2023-05-17T06:55:10;12.40;;;4.93;;
21624;SDS011;10974;51.034;3.744;2023-05-17T06:57:36;11.73;;;4.77;;
21624;SDS011;10974;51.034;3.744;2023-05-17T07:00:03;11.17;;;4.90;;
21624;SDS011;10974;51.034;3.744;2023-05-17T07:02:34;11.97;;;5.00;;
21624;SDS011;10974;51.034;3.744;2023-05-17T07:05:00;9.23;;;4.80;;
21624;SDS011;10974;51.034;3.744;2023-05-17T07:07:27;7.00;;;4.07;;
21624;SDS011;10974;51.034;3.744;2023-05-17T07:09:53;11.73;;;4.57;;
21624;SDS011;10974;51.034;3.744;2023-05-17T07:12:19;12.10;;;5.10;;
21624;SDS011;10974;51.034;3.744;2023-05-17T07:14:45;12.87;;;4.80;;
21624;SDS011;10974;51.034;3.744;2023-05-17T07:17:11;9.33;;;4.23;;
21624;SDS011;10974;51.034;3.744;2023-05-17T07:19:37;9.43;;;4.30;;
21624;SDS011;10974;51.034;3.744;2023-05-17T07:22:03;10.53;;;5.00;;
21624;SDS011;10974;51.034;3.744;2023-05-17T07:24:29;10.43;;;4.53;;
21624;SDS011;10974;51.034;3.744;2023-05-17T07:26:55;8.17;;;3.53;;
21624;SDS011;10974;51.034;3.744;2023-05-17T07:29:23;5.77;;;3.80;;
21624;SDS011;10974;51.034;3.744;2023-05-17T07:31:49;8.83;;;4.17;;
21624;SDS011;10974;51.034;3.744;2023-05-17T07:34:15;7.83;;;4.07;;
21624;SDS011;10974;51.034;3.744;2023-05-17T07:36:41;14.23;;;4.57;;
21624;SDS011;10974;51.034;3.744;2023-05-17T07:39:07;9.17;;;4.10;;
21624;SDS011;10974;51.034;3.744;2023-05-17T07:41:34;5.37;;;3.43;;
21624;SDS011;10974;51.034;3.744;2023-05-17T07:44:00;8.33;;;4.17;;
21624;SDS011;10974;51.034;3.744;2023-05-17T07:46:26;13.83;;;4.73;;
21624;SDS011;10974;51.034;3.744;2023-05-17T07:48:53;10.63;;;4.23;;
21624;SDS011;10974;51.034;3.744;2023-05-17T07:51:19;9.63;;;4.47;;
21624;SDS011;10974;51.034;3.744;2023-05-17T07:53:45;7.53;;;4.50;;
21624;SDS011;10974;51.034;3.744;2023-05-17T07:56:11;8.30;;;4.80;;
21624;SDS011;10974;51.034;3.744;2023-05-17T07:58:37;10.70;;;3.80;;
21624;SDS011;10974;51.034;3.744;2023-05-17T08:01:03;8.20;;;3.83;;
21624;SDS011;10974;51.034;3.744;2023-05-17T08:03:30;8.23;;;4.53;;
21624;SDS011;10974;51.034;3.744;2023-05-17T08:05:56;6.23;;;4.00;;
21624;SDS011;10974;51.034;3.744;2023-05-17T08:08:22;6.90;;;3.50;;
21624;SDS011;10974;51.034;3.744;2023-05-17T08:10:48;10.10;;;3.50;;
21624;SDS011;10974;51.034;3.744;2023-05-17T08:13:14;8.40;;;3.53;;
21624;SDS011;10974;51.034;3.744;2023-05-17T08:15:40;7.63;;;3.20;;
21624;SDS011;10974;51.034;3.744;2023-05-17T08:18:06;10.20;;;3.93;;
21624;SDS011;10974;51.034;3.744;2023-05-17T08:20:32;10.40;;;3.83;;
21624;SDS011;10974;51.034;3.744;2023-05-17T08:22:58;6.23;;;3.20;;
21624;SDS011;10974;51.034;3.744;2023-05-17T08:25:24;8.53;;;3.33;;
21624;SDS011;10974;51.034;3.744;2023-05-17T08:27:50;7.73;;;3.20;;
21624;SDS011;10974;51.034;3.744;2023-05-17T08:30:17;9.17;;;3.30;;
21624;SDS011;10974;51.034;3.744;2023-05-17T08:32:43;8.70;;;3.40;;
21624;SDS011;10974;51.034;3.744;2023-05-17T08:35:09;7.60;;;3.13;;
21624;SDS011;10974;51.034;3.744;2023-05-17T08:37:36;7.53;;;3.30;;
21624;SDS011;10974;51.034;3.744;2023-05-17T08:40:02;7.20;;;3.50;;
21624;SDS011;10974;51.034;3.744;2023-05-17T08:42:29;9.03;;;3.50;;
21624;SDS011;10974;51.034;3.744;2023-05-17T08:44:55;11.87;;;3.43;;
21624;SDS011;10974;51.034;3.744;2023-05-17T08:47:21;8.63;;;3.10;;
21624;SDS011;10974;51.034;3.744;2023-05-17T08:49:56;8.03;;;3.20;;
21624;SDS011;10974;51.034;3.744;2023-05-17T08:52:29;6.37;;;3.10;;
21624;SDS011;10974;51.034;3.744;2023-05-17T08:54:58;9.00;;;3.30;;
21624;SDS011;10974;51.034;3.744;2023-05-17T08:57:27;6.83;;;2.57;;
21624;SDS011;10974;51.034;3.744;2023-05-17T08:59:53;8.10;;;3.67;;
21624;SDS011;10974;51.034;3.744;2023-05-17T09:02:20;7.47;;;2.80;;
21624;SDS011;10974;51.034;3.744;2023-05-17T09:04:48;18.33;;;9.70;;
21624;SDS011;10974;51.034;3.744;2023-05-17T09:07:22;14.17;;;6.30;;
21624;SDS011;10974;51.034;3.744;2023-05-17T09:09:52;7.47;;;3.60;;
21624;SDS011;10974;51.034;3.744;2023-05-17T09:12:19;10.20;;;4.07;;
21624;SDS011;10974;51.034;3.744;2023-05-17T09:14:45;7.30;;;2.93;;
21624;SDS011;10974;51.034;3.744;2023-05-17T09:17:19;9.17;;;5.03;;
21624;SDS011;10974;51.034;3.744;2023-05-17T09:19:46;12.03;;;5.10;;
21624;SDS011;10974;51.034;3.744;2023-05-17T09:22:18;8.00;;;3.27;;
21624;SDS011;10974;51.034;3.744;2023-05-17T09:24:44;8.50;;;2.93;;
21624;SDS011;10974;51.034;3.744;2023-05-17T09:27:14;4.17;;;2.70;;
21624;SDS011;10974;51.034;3.744;2023-05-17T09:29:40;6.33;;;2.60;;
21624;SDS011;10974;51.034;3.744;2023-05-17T09:32:12;6.47;;;2.80;;
21624;SDS011;10974;51.034;3.744;2023-05-17T09:34:39;3.87;;;2.43;;
21624;SDS011;10974;51.034;3.744;2023-05-17T09:37:11;8.73;;;3.00;;
21624;SDS011;10974;51.034;3.744;2023-05-17T09:39:38;6.00;;;2.47;;
21624;SDS011;10974;51.034;3.744;2023-05-17T09:42:04;6.90;;;2.90;;
21624;SDS011;10974;51.034;3.744;2023-05-17T09:44:30;5.07;;;2.57;;
21624;SDS011;10974;51.034;3.744;2023-05-17T09:46:57;4.97;;;2.60;;
21624;SDS011;10974;51.034;3.744;2023-05-17T09:49:25;5.67;;;2.47;;
21624;SDS011;10974;51.034;3.744;2023-05-17T09:51:53;12.90;;;3.30;;
21624;SDS011;10974;51.034;3.744;2023-05-17T09:54:19;6.07;;;2.83;;
21624;SDS011;10974;51.034;3.744;2023-05-17T09:56:51;9.60;;;3.33;;
21624;SDS011;10974;51.034;3.744;2023-05-17T09:59:18;6.03;;;2.70;;
21624;SDS011;10974;51.034;3.744;2023-05-17T10:01:44;6.87;;;2.27;;
21624;SDS011;10974;51.034;3.744;2023-05-17T10:04:14;7.00;;;3.13;;
21624;SDS011;10974;51.034;3.744;2023-05-17T10:06:44;7.20;;;2.70;;
21624;SDS011;10974;51.034;3.744;2023-05-17T10:09:13;6.07;;;2.13;;
21624;SDS011;10974;51.034;3.744;2023-05-17T10:11:40;5.90;;;2.57;;
21624;SDS011;10974;51.034;3.744;2023-05-17T10:14:26;4.40;;;1.80;;
21624;SDS011;10974;51.034;3.744;2023-05-17T10:16:53;4.67;;;1.97;;
21624;SDS011;10974;51.034;3.744;2023-05-17T10:19:20;7.07;;;2.70;;
21624;SDS011;10974;51.034;3.744;2023-05-17T10:21:47;8.10;;;2.67;;
21624;SDS011;10974;51.034;3.744;2023-05-17T10:24:13;6.70;;;2.50;;
21624;SDS011;10974;51.034;3.744;2023-05-17T10:26:40;8.20;;;2.70;;
21624;SDS011;10974;51.034;3.744;2023-05-17T10:29:07;10.60;;;3.10;;
21624;SDS011;10974;51.034;3.744;2023-05-17T10:31:33;7.20;;;2.70;;
21624;SDS011;10974;51.034;3.744;2023-05-17T10:34:03;8.37;;;2.20;;
21624;SDS011;10974;51.034;3.744;2023-05-17T10:36:30;7.47;;;2.43;;
21624;SDS011;10974;51.034;3.744;2023-05-17T10:38:57;11.67;;;2.47;;
21624;SDS011;10974;51.034;3.744;2023-05-17T10:41:25;61.30;;;3.53;;
21624;SDS011;10974;51.034;3.744;2023-05-17T10:43:53;10.13;;;2.70;;
21624;SDS011;10974;51.034;3.744;2023-05-17T10:46:20;6.90;;;3.17;;
21624;SDS011;10974;51.034;3.744;2023-05-17T10:48:51;11.97;;;3.13;;
21624;SDS011;10974;51.034;3.744;2023-05-17T10:51:24;16.53;;;4.60;;
21624;SDS011;10974;51.034;3.744;2023-05-17T10:54:12;10.57;;;5.10;;
21624;SDS011;10974;51.034;3.744;2023-05-17T10:56:41;9.47;;;3.17;;
21624;SDS011;10974;51.034;3.744;2023-05-17T11:04:31;5.93;;;3.03;;
21624;SDS011;10974;51.034;3.744;2023-05-17T11:09:43;7.30;;;3.70;;
21624;SDS011;10974;51.034;3.744;2023-05-17T11:12:11;12.03;;;4.20;;
21624;SDS011;10974;51.034;3.744;2023-05-17T11:17:16;7.80;;;3.80;;
21624;SDS011;10974;51.034;3.744;2023-05-17T11:22:25;7.47;;;3.50;;
21624;SDS011;10974;51.034;3.744;2023-05-17T11:24:52;10.60;;;3.43;;
21624;SDS011;10974;51.034;3.744;2023-05-17T11:27:18;3.77;;;2.07;;
21624;SDS011;10974;51.034;3.744;2023-05-17T11:29:45;6.20;;;3.00;;
21624;SDS011;10974;51.034;3.744;2023-05-17T11:32:12;12.23;;;4.10;;
21624;SDS011;10974;51.034;3.744;2023-05-17T11:34:38;10.33;;;2.10;;
21624;SDS011;10974;51.034;3.744;2023-05-17T11:37:04;6.03;;;2.80;;
21624;SDS011;10974;51.034;3.744;2023-05-17T11:39:35;7.87;;;3.37;;
21624;SDS011;10974;51.034;3.744;2023-05-17T11:42:01;10.33;;;3.50;;
21624;SDS011;10974;51.034;3.744;2023-05-17T11:44:36;9.53;;;3.93;;
21624;SDS011;10974;51.034;3.744;2023-05-17T11:47:03;16.57;;;3.20;;
21624;SDS011;10974;51.034;3.744;2023-05-17T11:49:31;4.53;;;2.70;;
21624;SDS011;10974;51.034;3.744;2023-05-17T11:51:58;7.87;;;3.10;;
21624;SDS011;10974;51.034;3.744;2023-05-17T11:54:24;8.50;;;3.00;;
21624;SDS011;10974;51.034;3.744;2023-05-17T11:56:53;8.73;;;4.23;;
21624;SDS011;10974;51.034;3.744;2023-05-17T11:59:20;9.23;;;3.30;;
21624;SDS011;10974;51.034;3.744;2023-05-17T12:01:47;6.10;;;2.67;;
21624;SDS011;10974;51.034;3.744;2023-05-17T12:04:13;5.50;;;2.30;;
21624;SDS011;10974;51.034;3.744;2023-05-17T12:06:39;7.87;;;2.47;;
21624;SDS011;10974;51.034;3.744;2023-05-17T12:09:06;6.77;;;2.60;;
21624;SDS011;10974;51.034;3.744;2023-05-17T12:11:35;9.20;;;2.30;;
21624;SDS011;10974;51.034;3.744;2023-05-17T12:14:03;6.30;;;2.17;;
21624;SDS011;10974;51.034;3.744;2023-05-17T12:16:29;4.90;;;2.50;;
21624;SDS011;10974;51.034;3.744;2023-05-17T12:18:57;8.33;;;2.90;;
21624;SDS011;10974;51.034;3.744;2023-05-17T12:21:23;11.57;;;2.10;;
21624;SDS011;10974;51.034;3.744;2023-05-17T12:23:50;5.40;;;2.40;;
21624;SDS011;10974;51.034;3.744;2023-05-17T12:26:20;9.17;;;2.43;;
21624;SDS011;10974;51.034;3.744;2023-05-17T12:28:59;9.43;;;2.27;;
21624;SDS011;10974;51.034;3.744;2023-05-17T12:33:51;7.80;;;2.00;;
21624;SDS011;10974;51.034;3.744;2023-05-17T12:36:17;7.20;;;2.33;;
21624;SDS011;10974;51.034;3.744;2023-05-17T12:38:43;6.40;;;2.23;;
21624;SDS011;10974;51.034;3.744;2023-05-17T12:41:12;5.90;;;2.37;;
21624;SDS011;10974;51.034;3.744;2023-05-17T12:43:38;6.67;;;2.23;;
21624;SDS011;10974;51.034;3.744;2023-05-17T12:46:05;2.93;;;1.77;;
21624;SDS011;10974;51.034;3.744;2023-05-17T12:48:35;6.93;;;2.73;;
21624;SDS011;10974;51.034;3.744;2023-05-17T12:51:20;8.87;;;2.20;;
21624;SDS011;10974;51.034;3.744;2023-05-17T12:53:51;11.80;;;2.60;;
21624;SDS011;10974;51.034;3.744;2023-05-17T12:56:18;8.63;;;2.80;;
21624;SDS011;10974;51.034;3.744;2023-05-17T13:01:34;5.60;;;2.80;;
21624;SDS011;10974;51.034;3.744;2023-05-17T13:04:01;5.37;;;2.10;;
21624;SDS011;10974;51.034;3.744;2023-05-17T13:06:27;7.00;;;2.73;;
21624;SDS011;10974;51.034;3.744;2023-05-17T13:08:57;10.43;;;2.60;;
21624;SDS011;10974;51.034;3.744;2023-05-17T13:11:23;5.53;;;2.30;;
21624;SDS011;10974;51.034;3.744;2023-05-17T13:13:50;6.83;;;2.10;;
21624;SDS011;10974;51.034;3.744;2023-05-17T13:16:16;6.03;;;2.30;;
21624;SDS011;10974;51.034;3.744;2023-05-17T13:18:46;4.67;;;2.20;;
21624;SDS011;10974;51.034;3.744;2023-05-17T13:21:12;5.27;;;2.10;;
21624;SDS011;10974;51.034;3.744;2023-05-17T13:23:42;10.23;;;2.10;;
21624;SDS011;10974;51.034;3.744;2023-05-17T13:26:08;7.03;;;2.43;;
21624;SDS011;10974;51.034;3.744;2023-05-17T13:28:35;4.93;;;2.87;;
21624;SDS011;10974;51.034;3.744;2023-05-17T13:31:01;4.13;;;2.03;;
21624;SDS011;10974;51.034;3.744;2023-05-17T13:33:27;6.60;;;2.60;;
21624;SDS011;10974;51.034;3.744;2023-05-17T13:35:53;6.27;;;1.90;;
21624;SDS011;10974;51.034;3.744;2023-05-17T13:38:19;6.93;;;2.07;;
21624;SDS011;10974;51.034;3.744;2023-05-17T13:40:45;3.77;;;1.93;;
21624;SDS011;10974;51.034;3.744;2023-05-17T13:43:11;10.70;;;2.73;;
21624;SDS011;10974;51.034;3.744;2023-05-17T13:45:37;3.80;;;2.00;;
21624;SDS011;10974;51.034;3.744;2023-05-17T13:48:03;4.37;;;1.90;;
21624;SDS011;10974;51.034;3.744;2023-05-17T13:50:30;5.73;;;2.10;;
21624;SDS011;10974;51.034;3.744;2023-05-17T13:52:56;5.00;;;1.80;;
21624;SDS011;10974;51.034;3.744;2023-05-17T13:55:22;5.30;;;2.20;;
21624;SDS011;10974;51.034;3.744;2023-05-17T13:57:48;3.67;;;1.70;;
21624;SDS011;10974;51.034;3.744;2023-05-17T14:00:14;6.17;;;1.93;;
21624;SDS011;10974;51.034;3.744;2023-05-17T14:02:41;4.63;;;2.10;;
21624;SDS011;10974;51.034;3.744;2023-05-17T14:05:07;7.63;;;2.53;;
21624;SDS011;10974;51.034;3.744;2023-05-17T14:07:34;7.07;;;2.30;;
21624;SDS011;10974;51.034;3.744;2023-05-17T14:10:05;5.70;;;2.10;;
21624;SDS011;10974;51.034;3.744;2023-05-17T14:12:31;6.90;;;2.13;;
21624;SDS011;10974;51.034;3.744;2023-05-17T14:14:57;7.50;;;1.83;;
21624;SDS011;10974;51.034;3.744;2023-05-17T14:17:23;5.90;;;3.07;;
21624;SDS011;10974;51.034;3.744;2023-05-17T14:19:49;7.70;;;2.20;;
21624;SDS011;10974;51.034;3.744;2023-05-17T14:22:16;4.50;;;2.47;;
21624;SDS011;10974;51.034;3.744;2023-05-17T14:24:42;6.00;;;1.80;;
21624;SDS011;10974;51.034;3.744;2023-05-17T14:27:08;4.67;;;2.20;;
21624;SDS011;10974;51.034;3.744;2023-05-17T14:29:35;9.20;;;3.60;;
21624;SDS011;10974;51.034;3.744;2023-05-17T14:32:01;11.33;;;4.13;;
21624;SDS011;10974;51.034;3.744;2023-05-17T14:34:27;4.50;;;2.30;;
21624;SDS011;10974;51.034;3.744;2023-05-17T14:36:55;7.23;;;2.20;;
21624;SDS011;10974;51.034;3.744;2023-05-17T14:39:21;6.80;;;2.60;;
21624;SDS011;10974;51.034;3.744;2023-05-17T14:41:47;8.83;;;2.30;;
21624;SDS011;10974;51.034;3.744;2023-05-17T14:44:13;3.90;;;2.03;;
21624;SDS011;10974;51.034;3.744;2023-05-17T14:46:39;5.33;;;2.50;;
21624;SDS011;10974;51.034;3.744;2023-05-17T14:49:05;4.33;;;2.40;;
21624;SDS011;10974;51.034;3.744;2023-05-17T14:51:31;9.90;;;2.20;;
21624;SDS011;10974;51.034;3.744;2023-05-17T14:53:57;2.57;;;1.93;;
21624;SDS011;10974;51.034;3.744;2023-05-17T14:56:23;3.97;;;2.40;;
21624;SDS011;10974;51.034;3.744;2023-05-17T14:58:50;5.03;;;2.60;;
21624;SDS011;10974;51.034;3.744;2023-05-17T15:01:16;4.30;;;2.17;;
21624;SDS011;10974;51.034;3.744;2023-05-17T15:03:42;5.13;;;2.80;;
21624;SDS011;10974;51.034;3.744;2023-05-17T15:06:08;7.67;;;3.13;;
21624;SDS011;10974;51.034;3.744;2023-05-17T15:08:34;5.90;;;2.53;;
21624;SDS011;10974;51.034;3.744;2023-05-17T15:11:01;5.90;;;2.70;;
21624;SDS011;10974;51.034;3.744;2023-05-17T15:13:27;6.33;;;2.97;;
21624;SDS011;10974;51.034;3.744;2023-05-17T15:15:53;7.47;;;2.50;;
21624;SDS011;10974;51.034;3.744;2023-05-17T15:18:19;7.60;;;2.60;;
21624;SDS011;10974;51.034;3.744;2023-05-17T15:20:46;4.30;;;2.30;;
21624;SDS011;10974;51.034;3.744;2023-05-17T15:23:12;7.63;;;2.80;;
21624;SDS011;10974;51.034;3.744;2023-05-17T15:25:39;7.63;;;3.53;;
21624;SDS011;10974;51.034;3.744;2023-05-17T15:28:05;4.67;;;2.80;;
21624;SDS011;10974;51.034;3.744;2023-05-17T15:30:31;5.90;;;2.20;;
21624;SDS011;10974;51.034;3.744;2023-05-17T15:33:00;3.97;;;1.93;;
21624;SDS011;10974;51.034;3.744;2023-05-17T15:35:26;5.30;;;1.77;;
21624;SDS011;10974;51.034;3.744;2023-05-17T15:37:53;6.50;;;1.73;;
21624;SDS011;10974;51.034;3.744;2023-05-17T15:40:19;4.63;;;1.90;;
21624;SDS011;10974;51.034;3.744;2023-05-17T15:42:46;4.60;;;2.37;;
21624;SDS011;10974;51.034;3.744;2023-05-17T15:45:12;6.67;;;2.30;;
21624;SDS011;10974;51.034;3.744;2023-05-17T15:47:38;5.77;;;2.10;;
21624;SDS011;10974;51.034;3.744;2023-05-17T15:50:05;3.63;;;2.20;;
21624;SDS011;10974;51.034;3.744;2023-05-17T15:52:31;5.53;;;2.40;;
21624;SDS011;10974;51.034;3.744;2023-05-17T15:54:57;11.60;;;2.50;;
21624;SDS011;10974;51.034;3.744;2023-05-17T15:57:23;6.63;;;2.43;;
21624;SDS011;10974;51.034;3.744;2023-05-17T15:59:50;7.20;;;2.80;;
21624;SDS011;10974;51.034;3.744;2023-05-17T16:02:17;4.50;;;2.00;;
21624;SDS011;10974;51.034;3.744;2023-05-17T16:04:43;7.13;;;2.87;;
21624;SDS011;10974;51.034;3.744;2023-05-17T16:07:09;6.73;;;2.60;;
21624;SDS011;10974;51.034;3.744;2023-05-17T16:09:35;9.60;;;2.40;;
21624;SDS011;10974;51.034;3.744;2023-05-17T16:12:01;5.10;;;2.30;;
21624;SDS011;10974;51.034;3.744;2023-05-17T16:14:27;4.20;;;2.00;;
21624;SDS011;10974;51.034;3.744;2023-05-17T16:16:53;6.30;;;3.10;;
21624;SDS011;10974;51.034;3.744;2023-05-17T16:19:20;15.97;;;3.20;;
21624;SDS011;10974;51.034;3.744;2023-05-17T16:21:46;7.50;;;3.00;;
21624;SDS011;10974;51.034;3.744;2023-05-17T16:24:14;6.70;;;2.87;;
21624;SDS011;10974;51.034;3.744;2023-05-17T16:26:40;8.03;;;3.30;;
21624;SDS011;10974;51.034;3.744;2023-05-17T16:29:06;6.17;;;3.67;;
21624;SDS011;10974;51.034;3.744;2023-05-17T16:31:32;10.23;;;3.97;;
21624;SDS011;10974;51.034;3.744;2023-05-17T16:33:58;7.23;;;3.23;;
21624;SDS011;10974;51.034;3.744;2023-05-17T16:36:25;5.40;;;2.63;;
21624;SDS011;10974;51.034;3.744;2023-05-17T16:38:51;6.03;;;2.50;;
21624;SDS011;10974;51.034;3.744;2023-05-17T16:41:17;6.50;;;2.17;;
21624;SDS011;10974;51.034;3.744;2023-05-17T16:43:43;7.60;;;2.30;;
21624;SDS011;10974;51.034;3.744;2023-05-17T16:46:09;5.47;;;2.27;;
21624;SDS011;10974;51.034;3.744;2023-05-17T16:48:36;6.97;;;2.33;;
21624;SDS011;10974;51.034;3.744;2023-05-17T16:51:02;5.47;;;2.57;;
21624;SDS011;10974;51.034;3.744;2023-05-17T16:53:28;3.80;;;2.07;;
21624;SDS011;10974;51.034;3.744;2023-05-17T16:55:54;4.47;;;2.00;;
21624;SDS011;10974;51.034;3.744;2023-05-17T16:58:20;2.93;;;1.93;;
21624;SDS011;10974;51.034;3.744;2023-05-17T17:00:46;5.30;;;2.70;;
21624;SDS011;10974;51.034;3.744;2023-05-17T17:03:12;4.87;;;2.73;;
21624;SDS011;10974;51.034;3.744;2023-05-17T17:05:38;6.20;;;2.87;;
21624;SDS011;10974;51.034;3.744;2023-05-17T17:08:04;8.60;;;3.00;;
21624;SDS011;10974;51.034;3.744;2023-05-17T17:10:30;6.87;;;2.33;;
21624;SDS011;10974;51.034;3.744;2023-05-17T17:12:56;5.17;;;2.40;;
21624;SDS011;10974;51.034;3.744;2023-05-17T17:15:23;7.03;;;2.53;;
21624;SDS011;10974;51.034;3.744;2023-05-17T17:17:49;8.33;;;2.87;;
21624;SDS011;10974;51.034;3.744;2023-05-17T17:20:16;7.00;;;2.40;;
21624;SDS011;10974;51.034;3.744;2023-05-17T17:22:42;10.67;;;3.57;;
21624;SDS011;10974;51.034;3.744;2023-05-17T17:25:08;6.87;;;2.90;;
21624;SDS011;10974;51.034;3.744;2023-05-17T17:27:34;5.50;;;3.30;;
21624;SDS011;10974;51.034;3.744;2023-05-17T17:30:01;7.80;;;2.73;;
21624;SDS011;10974;51.034;3.744;2023-05-17T17:32:27;8.10;;;2.80;;
21624;SDS011;10974;51.034;3.744;2023-05-17T17:34:53;10.77;;;3.40;;
21624;SDS011;10974;51.034;3.744;2023-05-17T17:37:19;5.73;;;3.40;;
21624;SDS011;10974;51.034;3.744;2023-05-17T17:39:45;6.00;;;2.90;;
21624;SDS011;10974;51.034;3.744;2023-05-17T17:42:11;7.37;;;3.63;;
21624;SDS011;10974;51.034;3.744;2023-05-17T17:44:37;6.83;;;2.90;;
21624;SDS011;10974;51.034;3.744;2023-05-17T17:47:03;5.93;;;2.63;;
21624;SDS011;10974;51.034;3.744;2023-05-17T17:49:30;5.90;;;2.40;;
21624;SDS011;10974;51.034;3.744;2023-05-17T17:51:56;4.73;;;2.07;;
21624;SDS011;10974;51.034;3.744;2023-05-17T17:54:22;7.70;;;2.50;;
21624;SDS011;10974;51.034;3.744;2023-05-17T17:56:48;5.90;;;2.80;;
21624;SDS011;10974;51.034;3.744;2023-05-17T17:59:14;5.43;;;3.00;;
21624;SDS011;10974;51.034;3.744;2023-05-17T18:01:41;5.90;;;3.10;;
21624;SDS011;10974;51.034;3.744;2023-05-17T18:04:07;9.30;;;3.80;;
21624;SDS011;10974;51.034;3.744;2023-05-17T18:06:35;5.60;;;3.10;;
21624;SDS011;10974;51.034;3.744;2023-05-17T18:09:01;8.50;;;2.80;;
21624;SDS011;10974;51.034;3.744;2023-05-17T18:11:27;6.47;;;3.73;;
21624;SDS011;10974;51.034;3.744;2023-05-17T18:13:53;5.53;;;2.20;;
21624;SDS011;10974;51.034;3.744;2023-05-17T18:16:20;9.57;;;3.47;;
21624;SDS011;10974;51.034;3.744;2023-05-17T18:18:46;6.23;;;2.90;;
21624;SDS011;10974;51.034;3.744;2023-05-17T18:21:12;6.80;;;2.97;;
21624;SDS011;10974;51.034;3.744;2023-05-17T18:23:38;4.50;;;2.73;;
21624;SDS011;10974;51.034;3.744;2023-05-17T18:26:04;5.70;;;3.07;;
21624;SDS011;10974;51.034;3.744;2023-05-17T18:28:31;8.20;;;3.30;;
21624;SDS011;10974;51.034;3.744;2023-05-17T18:30:57;6.47;;;3.33;;
21624;SDS011;10974;51.034;3.744;2023-05-17T18:33:23;7.20;;;3.60;;
21624;SDS011;10974;51.034;3.744;2023-05-17T18:35:51;6.47;;;2.80;;
21624;SDS011;10974;51.034;3.744;2023-05-17T18:38:17;7.87;;;3.03;;
21624;SDS011;10974;51.034;3.744;2023-05-17T18:40:43;5.23;;;2.03;;